KDET/DET METAR and TAF weather

Enter ICAO airport designator
Station Type Date Time Source
KDET METAR 2021/04/18 02:53 UTC NOAA

KDET 180253Z 19003KT 10SM SCT095 09/03 A2990 RMK AO2 SLP128 T00890033 50008


Station Type Date Time Source
KDET Decoded METAR 2021/04/18 02:53 UTC NOAA

DETROIT CITY AIRPORT, MI, United States (KDET) 42-25N 083-01W 190M
Apr 17, 2021 - 10:53 PM EDT / 2021.04.18 0253 UTC
Wind: from the S (190 degrees) at 3 MPH (3 KT):0
Visibility: 10 mile(s):0
Sky conditions: partly cloudy
Temperature: 48.0 F (8.9 C)
Dew Point: 37.9 F (3.3 C)
Relative Humidity: 67%
Pressure (altimeter): 29.9 in. Hg (1012 hPa)
Pressure tendency: 0.02 inches (0.8 hPa) higher than three hours ago
ob: KDET 180253Z 19003KT 10SM SCT095 09/03 A2990 RMK AO2 SLP128 T00890033 50008
cycle: 3

Station Type Date Time Source
KDET TAF 2021/04/17 18:24 UTC NOAA

TAF KDET 171722Z 1718/1818 VRB04KT P6SM BKN045 BKN200
TEMPO 1718/1720 BKN035 BKN200
FM172000 31004KT P6SM BKN050 BKN200
FM180400 VRB03KT P6SM SCT050 BKN150
FM181400 30006KT P6SM BKN080

Example: see airport list